Time;durP1;ratioP1;P1;durP2;ratioP2;P2;SDS_P1;SDS_P2;PMS_P1;PMS_P2;Temp;Humidity;BMP_temperature;BMP_pressure;BME280_temperature;BME280_humidity;BME280_pressure;Samples;Min_cycle;Max_cycle;Signal;HPM_P1;HPM_P2
2022/08/18 00:02:17;;;;;;;1.00;0.88;;;15.40;99.90;;;;;;5116303;28;20106;-77
2022/08/18 00:04:43;;;;;;;0.90;0.65;;;15.30;99.90;;;;;;5097918;28;20028;-77
2022/08/18 00:07:18;;;;;;;1.33;1.23;;;15.30;99.90;;;;;;5116279;28;20016;-76
2022/08/18 00:09:44;;;;;;;2.05;1.73;;;15.40;99.90;;;;;;5116032;28;20019;-77
2022/08/18 00:12:16;;;;;;;2.00;0.90;;;15.30;99.90;;;;;;5097750;28;20034;-77
2022/08/18 00:14:43;;;;;;;1.92;1.08;;;15.40;99.90;;;;;;5115992;28;20024;-77
2022/08/18 00:17:08;;;;;;;2.03;1.45;;;15.40;99.90;;;;;;5116114;28;20102;-76
2022/08/18 00:19:34;;;;;;;1.23;1.13;;;15.40;99.90;;;;;;5116073;28;20440;-78
2022/08/18 00:22:00;;;;;;;2.42;1.70;;;15.30;99.90;;;;;;5116141;28;20020;-77
2022/08/18 00:24:25;;;;;;;2.70;1.67;;;15.20;99.90;;;;;;5116219;28;20020;-77
2022/08/18 00:26:51;;;;;;;3.00;1.60;;;15.10;99.90;;;;;;5097612;28;20024;-77
2022/08/18 00:29:17;;;;;;;2.00;0.90;;;15.10;99.90;;;;;;5097409;28;20031;-77
2022/08/18 00:31:43;;;;;;;1.67;1.25;;;15.10;99.90;;;;;;5097209;28;20026;-77
2022/08/18 00:34:09;;;;;;;2.78;1.52;;;15.10;99.90;;;;;;5115638;28;20031;-77
2022/08/18 00:36:35;;;;;;;1.75;1.65;;;15.00;99.90;;;;;;5115732;28;20024;-78
2022/08/18 00:39:02;;;;;;;0.82;0.82;;;15.00;99.90;;;;;;5115850;28;20384;-78
2022/08/18 00:41:28;;;;;;;2.78;1.40;;;15.00;99.90;;;;;;5115521;28;20092;-77
2022/08/18 00:43:57;;;;;;;3.42;2.28;;;15.00;99.90;;;;;;5097189;28;20394;-77
2022/08/18 00:46:32;;;;;;;1.50;0.80;;;15.00;99.90;;;;;;5115605;28;20119;-78
2022/08/18 00:48:58;;;;;;;1.75;1.65;;;14.90;99.90;;;;;;5114909;28;20023;-78
2022/08/18 00:51:49;;;;;;;1.65;1.33;;;14.90;99.90;;;;;;5097051;28;20448;-77
2022/08/18 00:54:22;;;;;;;3.40;1.63;;;14.80;99.90;;;;;;5115130;28;20039;-76
2022/08/18 00:56:51;;;;;;;0.90;0.90;;;14.80;99.90;;;;;;5115137;28;20028;-77
2022/08/18 00:59:22;;;;;;;4.50;2.17;;;14.70;99.90;;;;;;5115172;28;20495;-77
2022/08/18 01:01:51;;;;;;;2.70;2.50;;;14.80;99.90;;;;;;5096863;28;20038;-77
2022/08/18 01:04:27;;;;;;;1.30;1.30;;;14.80;99.90;;;;;;5096627;28;20028;-77
2022/08/18 01:07:00;;;;;;;2.38;2.22;;;14.80;99.90;;;;;;5115232;28;20023;-77
2022/08/18 01:09:27;;;;;;;1.52;1.05;;;14.70;99.90;;;;;;5114655;28;20070;-77
2022/08/18 01:11:52;;;;;;;2.55;1.77;;;14.70;99.90;;;;;;5096642;28;20020;-78
2022/08/18 01:14:19;;;;;;;1.50;1.40;;;14.70;99.90;;;;;;5096174;28;20039;-78
2022/08/18 01:22:29;;;;;;;1.73;1.63;;;14.70;99.90;;;;;;5114965;28;20041;-78
2022/08/18 01:27:43;;;;;;;1.67;1.52;;;14.80;99.90;;;;;;5115007;28;20536;-76
2022/08/18 01:30:14;;;;;;;2.08;1.50;;;14.70;99.90;;;;;;5096286;28;20024;-77
2022/08/18 01:32:44;;;;;;;3.08;1.40;;;14.80;99.90;;;;;;5096134;28;20525;-78
2022/08/18 01:35:12;;;;;;;5.85;2.38;;;14.80;99.90;;;;;;5096172;28;20035;-78
2022/08/18 01:37:40;;;;;;;1.45;1.17;;;14.70;99.90;;;;;;5096074;28;20510;-76
2022/08/18 01:40:09;;;;;;;3.67;1.52;;;14.80;99.90;;;;;;5096308;28;20104;-76
2022/08/18 01:42:36;;;;;;;4.53;2.72;;;14.90;99.90;;;;;;5114439;28;20094;-77
2022/08/18 01:45:04;;;;;;;3.25;2.10;;;14.90;99.90;;;;;;5096001;28;20547;-76
2022/08/18 01:47:32;;;;;;;2.28;1.50;;;14.90;99.90;;;;;;5114344;28;20020;-76
2022/08/18 01:49:59;;;;;;;2.17;1.48;;;14.90;99.90;;;;;;5114063;28;20028;-77
2022/08/18 01:52:25;;;;;;;2.25;1.70;;;14.80;99.90;;;;;;5095924;28;20024;-76
2022/08/18 01:54:51;;;;;;;1.45;1.38;;;14.80;99.90;;;;;;5114066;28;20043;-77
2022/08/18 01:57:18;;;;;;;2.05;1.95;;;14.80;99.90;;;;;;5095983;28;20397;-77
2022/08/18 01:59:44;;;;;;;3.80;2.10;;;14.80;99.90;;;;;;5113611;28;20015;-77
2022/08/18 02:02:15;;;;;;;2.08;1.83;;;14.80;99.90;;;;;;5114192;28;20030;-77
2022/08/18 02:04:42;;;;;;;8.60;2.42;;;14.80;99.90;;;;;;5113977;28;20084;-76
2022/08/18 02:07:10;;;;;;;0.90;0.90;;;14.90;99.90;;;;;;5113962;28;20035;-77
2022/08/18 02:09:37;;;;;;;2.10;1.73;;;14.90;99.90;;;;;;5113989;28;20383;-76
2022/08/18 02:12:04;;;;;;;2.15;1.65;;;14.90;99.90;;;;;;5114106;28;20046;-77
2022/08/18 02:14:30;;;;;;;2.50;1.70;;;14.80;99.90;;;;;;5095647;28;20043;-77
2022/08/18 02:16:57;;;;;;;1.15;1.05;;;14.80;99.90;;;;;;5095569;28;20031;-78
2022/08/18 02:19:23;;;;;;;3.08;1.15;;;14.70;99.90;;;;;;5113897;28;20051;-77
2022/08/18 02:21:51;;;;;;;1.45;1.00;;;14.70;99.90;;;;;;5113776;28;20047;-78
2022/08/18 02:24:17;;;;;;;4.07;1.88;;;14.70;99.90;;;;;;5095453;28;20024;-76
2022/08/18 02:26:43;;;;;;;1.20;1.20;;;14.70;99.90;;;;;;5113768;28;20417;-76
2022/08/18 02:29:09;;;;;;;1.27;1.17;;;14.70;99.90;;;;;;5095719;28;20023;-77
2022/08/18 02:31:35;;;;;;;0.98;0.98;;;14.70;99.90;;;;;;5095500;28;20030;-77
2022/08/18 02:34:01;;;;;;;3.67;2.00;;;;;;;;;;5113873;28;20024;-76
2022/08/18 02:36:27;;;;;;;5.20;2.15;;;14.60;99.90;;;;;;5113840;28;20042;-77
2022/08/18 02:38:53;;;;;;;1.73;1.30;;;14.60;99.90;;;;;;5113680;28;20028;-77
2022/08/18 02:41:19;;;;;;;3.42;1.45;;;14.60;99.90;;;;;;5113718;28;20032;-77
2022/08/18 02:43:47;;;;;;;2.33;2.15;;;14.50;99.90;;;;;;5114018;28;20457;-76
2022/08/18 02:46:13;;;;;;;2.67;1.67;;;14.60;99.90;;;;;;5095413;28;20157;-77
2022/08/18 02:48:39;;;;;;;4.78;2.35;;;14.60;99.90;;;;;;5113625;28;20023;-77
2022/08/18 02:51:11;;;;;;;2.33;1.52;;;14.60;99.90;;;;;;5113557;28;20015;-78
2022/08/18 02:53:42;;;;;;;5.25;2.03;;;14.50;99.90;;;;;;5113397;28;20067;-78
2022/08/18 02:56:23;;;;;;;1.75;1.65;;;14.50;99.90;;;;;;5113478;28;20032;-78
2022/08/18 02:58:54;;;;;;;2.92;1.83;;;14.40;99.90;;;;;;5113563;28;20110;-77
2022/08/18 03:01:22;;;;;;;2.28;2.10;;;14.40;99.90;;;;;;5095282;28;20028;-77
2022/08/18 03:03:49;;;;;;;1.20;1.10;;;14.40;99.90;;;;;;5113550;28;20020;-76
2022/08/18 03:06:16;;;;;;;2.00;1.85;;;14.50;99.90;;;;;;5113364;28;20038;-76
2022/08/18 03:08:42;;;;;;;3.17;1.40;;;14.40;99.90;;;;;;5113456;28;20024;-76
2022/08/18 03:11:07;;;;;;;1.35;1.35;;;14.40;99.90;;;;;;5114631;28;20435;-77
2022/08/18 03:13:33;;;;;;;6.07;2.10;;;14.30;99.90;;;;;;5117432;28;20055;-76
2022/08/18 03:15:59;;;;;;;1.45;1.35;;;14.30;99.90;;;;;;5117194;28;20031;-77
2022/08/18 03:18:24;;;;;;;1.58;1.48;;;14.30;99.90;;;;;;5098864;28;20467;-76
2022/08/18 03:20:50;;;;;;;3.35;1.65;;;14.30;99.90;;;;;;5117106;28;20028;-77
2022/08/18 03:23:16;;;;;;;1.83;1.73;;;14.20;99.90;;;;;;5117048;28;20044;-77
2022/08/18 03:25:47;;;;;;;1.42;1.30;;;14.20;99.90;;;;;;5117106;28;20019;-78
2022/08/18 03:28:15;;;;;;;1.63;1.52;;;14.10;99.90;;;;;;5117051;28;20068;-78
2022/08/18 03:30:42;;;;;;;1.88;1.67;;;14.20;99.90;;;;;;5098637;28;20384;-78
2022/08/18 03:33:08;;;;;;;2.95;2.05;;;14.10;99.90;;;;;;5116871;28;20097;-77
2022/08/18 03:35:37;;;;;;;6.53;1.58;;;14.20;99.90;;;;;;5098601;28;20047;-77
2022/08/18 03:38:03;;;;;;;1.85;1.42;;;14.20;99.90;;;;;;5098516;28;20024;-76
2022/08/18 03:40:29;;;;;;;1.67;1.40;;;14.30;99.90;;;;;;5116440;28;20027;-77
2022/08/18 03:42:55;;;;;;;2.67;1.88;;;14.30;99.90;;;;;;5116383;28;20032;-77
2022/08/18 03:45:23;;;;;;;1.35;1.13;;;14.30;99.90;;;;;;5098403;28;20031;-77
2022/08/18 03:47:51;;;;;;;1.95;1.77;;;14.30;99.90;;;;;;5116928;28;20020;-78
2022/08/18 03:50:18;;;;;;;3.75;1.00;;;14.40;99.90;;;;;;5116724;28;20024;-77
2022/08/18 03:52:48;;;;;;;2.13;2.03;;;14.50;99.90;;;;;;5117098;28;20027;-77
2022/08/18 03:55:14;;;;;;;;;;;14.50;99.90;;;;;;5119421;28;20035;-77
2022/08/18 03:57:41;;;;;;;2.67;1.67;;;14.50;99.90;;;;;;5098327;28;19951;-77
2022/08/18 04:00:08;;;;;;;0.90;0.90;;;14.50;99.90;;;;;;5116125;28;20050;-76
2022/08/18 04:02:34;;;;;;;2.60;1.40;;;14.50;99.90;;;;;;5115853;28;20474;-76
2022/08/18 04:05:00;;;;;;;0.98;0.98;;;14.60;99.90;;;;;;5116445;28;20054;-76
2022/08/18 04:07:25;;;;;;;3.25;1.33;;;14.60;99.90;;;;;;5116330;28;20024;-77
2022/08/18 04:09:51;;;;;;;2.38;1.08;;;14.70;99.90;;;;;;5116198;28;20529;-76
2022/08/18 04:12:17;;;;;;;1.80;1.63;;;14.80;99.90;;;;;;5116192;28;20059;-76
2022/08/18 04:14:46;;;;;;;1.70;0.70;;;14.80;99.90;;;;;;5115886;28;20062;-76
2022/08/18 04:17:12;;;;;;;;;;;14.90;99.90;;;;;;5116519;28;20027;-76
2022/08/18 04:19:37;;;;;;;0.93;0.93;;;14.90;99.90;;;;;;5097704;28;19948;-76
2022/08/18 04:22:04;;;;;;;1.40;1.30;;;14.90;99.90;;;;;;5115916;28;20059;-76
2022/08/18 04:24:33;;;;;;;1.95;1.27;;;14.90;99.90;;;;;;5097192;28;20059;-76
2022/08/18 04:27:01;;;;;;;1.63;0.97;;;14.90;99.90;;;;;;5115993;28;20015;-77
2022/08/18 04:29:27;;;;;;;1.77;1.02;;;15.00;99.90;;;;;;5116064;28;20468;-76
2022/08/18 04:31:53;;;;;;;3.17;1.42;;;15.00;99.90;;;;;;5115777;28;20590;-76
2022/08/18 04:34:21;;;;;;;2.47;1.15;;;15.10;99.90;;;;;;5115716;28;20544;-76
2022/08/18 04:36:52;;;;;;;1.60;1.50;;;15.20;99.90;;;;;;5115498;28;20028;-76
2022/08/18 04:39:18;;;;;;;2.95;1.40;;;15.20;99.90;;;;;;5097345;28;20026;-76
2022/08/18 04:41:43;;;;;;;2.40;1.58;;;15.20;99.90;;;;;;5097215;28;20114;-77
2022/08/18 04:44:11;;;;;;;1.90;1.33;;;15.20;99.90;;;;;;5115462;28;20107;-77
2022/08/18 04:46:40;;;;;;;1.10;1.10;;;15.30;99.90;;;;;;5096966;28;20466;-77
2022/08/18 04:49:08;;;;;;;1.90;1.00;;;15.30;99.90;;;;;;5096954;28;20066;-77
2022/08/18 04:51:34;;;;;;;1.38;1.05;;;15.30;99.90;;;;;;5097181;28;20023;-77
2022/08/18 04:53:59;;;;;;;3.60;1.05;;;15.40;99.90;;;;;;5096742;28;20052;-76
2022/08/18 04:56:29;;;;;;;1.45;1.35;;;15.50;99.90;;;;;;5115317;28;20038;-76
2022/08/18 04:59:10;;;;;;;1.58;1.33;;;15.50;99.90;;;;;;5115253;28;20015;-76
2022/08/18 05:01:44;;;;;;;1.15;1.05;;;15.50;99.90;;;;;;5115263;28;20491;-76
2022/08/18 05:04:12;;;;;;;2.40;1.58;;;15.60;99.90;;;;;;5115253;28;20054;-76
2022/08/18 05:06:38;;;;;;;0.88;0.88;;;15.60;99.90;;;;;;5096922;28;20034;-76
2022/08/18 05:09:07;;;;;;;1.35;1.25;;;15.60;99.90;;;;;;5115487;28;20016;-76
2022/08/18 05:11:34;;;;;;;2.05;1.13;;;15.60;99.90;;;;;;5097208;28;20099;-76
2022/08/18 05:14:03;;;;;;;1.30;1.20;;;15.60;99.90;;;;;;5115396;28;20023;-77
2022/08/18 05:16:35;;;;;;;1.13;1.02;;;15.60;99.90;;;;;;5119870;28;20090;-77
2022/08/18 05:19:03;;;;;;;1.83;1.73;;;15.60;99.90;;;;;;5096806;28;20035;-77
2022/08/18 05:21:29;;;;;;;1.25;1.17;;;15.60;99.90;;;;;;5114879;28;20020;-77
2022/08/18 05:23:55;;;;;;;3.20;0.93;;;15.70;99.90;;;;;;5115111;28;20411;-77
2022/08/18 05:26:21;;;;;;;1.48;1.10;;;15.80;99.90;;;;;;5115242;28;20476;-76
2022/08/18 05:28:48;;;;;;;1.52;1.42;;;15.80;99.90;;;;;;5097055;28;20178;-77
2022/08/18 05:31:18;;;;;;;1.15;1.05;;;15.80;99.90;;;;;;5116774;28;20062;-77
2022/08/18 05:33:45;;;;;;;1.05;0.98;;;15.90;99.90;;;;;;5123735;28;20015;-76
2022/08/18 05:36:14;;;;;;;1.25;0.70;;;15.90;99.90;;;;;;5115844;28;20031;-76
2022/08/18 05:38:58;;;;;;;0.80;0.80;;;16.00;99.90;;;;;;5102440;28;20020;-76
2022/08/18 05:41:32;;;;;;;1.15;1.15;;;15.90;99.90;;;;;;5119004;28;20038;-77
2022/08/18 05:44:00;;;;;;;1.80;1.20;;;16.00;99.90;;;;;;5121773;28;20373;-77
2022/08/18 05:46:42;;;;;;;1.10;1.10;;;16.00;99.90;;;;;;5123469;28;20076;-76
2022/08/18 05:49:07;;;;;;;1.10;1.08;;;16.00;99.90;;;;;;5105265;28;20047;-77
2022/08/18 05:51:39;;;;;;;1.20;1.10;;;16.10;99.90;;;;;;5123450;28;20031;-76
2022/08/18 05:56:55;;;;;;;1.48;1.38;;;16.10;99.90;;;;;;5124984;28;20064;-79
2022/08/18 05:59:29;;;;;;;0.98;0.95;;;16.10;99.90;;;;;;5126493;28;20022;-76
2022/08/18 06:02:11;;;;;;;1.75;1.13;;;16.10;99.90;;;;;;5111132;28;20033;-76
2022/08/18 06:04:54;;;;;;;2.08;1.50;;;16.10;99.90;;;;;;5105034;28;20023;-82
2022/08/18 06:07:40;;;;;;;2.05;1.13;;;16.10;99.90;;;;;;5123363;28;20019;-87
2022/08/18 06:10:08;;;;;;;9.70;1.95;;;16.20;99.90;;;;;;5104466;28;20027;-85
2022/08/18 06:12:37;;;;;;;2.28;1.52;;;16.30;99.90;;;;;;5123112;28;20083;-86
2022/08/18 06:15:23;;;;;;;1.73;1.40;;;16.50;99.90;;;;;;5123114;28;20038;-84
2022/08/18 06:18:00;;;;;;;1.77;1.27;;;16.60;99.90;;;;;;5129124;28;20098;-75
2022/08/18 06:20:42;;;;;;;1.70;1.60;;;16.70;99.90;;;;;;5125330;28;20476;-78
2022/08/18 06:23:29;;;;;;;4.85;2.33;;;16.80;99.90;;;;;;5124234;28;20038;-76
2022/08/18 06:26:07;;;;;;;2.67;1.83;;;16.90;99.90;;;;;;5097906;28;20123;-83
2022/08/18 06:29:01;;;;;;;1.55;1.25;;;17.00;99.90;;;;;;5099855;28;20087;-77
2022/08/18 06:31:52;;;;;;;2.55;1.67;;;17.00;99.90;;;;;;5116149;28;20051;-75
2022/08/18 06:34:50;;;;;;;2.03;1.55;;;17.10;99.90;;;;;;5102725;28;20027;-77
2022/08/18 06:37:26;;;;;;;1.63;1.13;;;17.30;99.90;;;;;;5113896;28;20429;-85
2022/08/18 06:39:52;;;;;;;1.50;1.45;;;17.50;99.90;;;;;;5113944;28;20450;-77
2022/08/18 06:42:25;;;;;;;1.65;1.52;;;17.90;99.90;;;;;;5113785;28;20483;-77
2022/08/18 06:45:05;;;;;;;2.33;1.38;;;18.00;99.90;;;;;;5113759;28;20031;-84
2022/08/18 06:47:59;;;;;;;0.95;0.77;;;18.10;99.90;;;;;;5117092;28;20022;-77
2022/08/18 06:50:51;;;;;;;1.52;1.15;;;18.10;99.90;;;;;;5117777;28;20477;-80
2022/08/18 06:53:16;;;;;;;3.35;1.52;;;18.10;99.90;;;;;;5113488;28;20040;-77
2022/08/18 06:55:46;;;;;;;1.00;0.55;;;18.10;99.90;;;;;;5117491;28;20114;-75
2022/08/18 06:58:14;;;;;;;2.55;2.35;;;18.00;99.90;;;;;;5117369;28;20494;-75
2022/08/18 07:00:53;;;;;;;1.48;1.10;;;18.00;99.90;;;;;;5098919;28;20050;-76
2022/08/18 07:03:23;;;;;;;0.63;0.63;;;17.90;99.90;;;;;;5117255;28;20055;-79
2022/08/18 07:06:10;;;;;;;0.70;0.70;;;17.80;99.90;;;;;;5118823;28;20340;-76
2022/08/18 07:08:40;;;;;;;1.45;1.38;;;17.80;99.90;;;;;;5117219;28;20043;-77
2022/08/18 07:11:22;;;;;;;2.65;1.95;;;17.90;99.90;;;;;;5098806;28;20020;-75
2022/08/18 07:13:51;;;;;;;0.77;0.77;;;18.00;99.90;;;;;;5116935;28;20063;-74
2022/08/18 07:16:26;;;;;;;1.52;1.42;;;18.00;99.90;;;;;;5098667;28;20062;-75
2022/08/18 07:18:52;;;;;;;1.08;0.98;;;18.00;99.90;;;;;;5098556;28;20030;-73
2022/08/18 07:21:27;;;;;;;1.15;1.05;;;17.90;99.90;;;;;;5098514;28;20119;-82
2022/08/18 07:24:20;;;;;;;1.65;1.55;;;17.90;99.90;;;;;;5116935;28;20050;-78
2022/08/18 07:27:01;;;;;;;2.83;1.17;;;17.80;99.90;;;;;;5098378;28;20026;-72
2022/08/18 07:29:29;;;;;;;3.50;1.73;;;17.80;99.90;;;;;;5116775;28;20028;-77
2022/08/18 07:31:58;;;;;;;0.82;0.80;;;17.70;99.90;;;;;;5116783;28;20471;-71
2022/08/18 07:34:36;;;;;;;4.63;1.40;;;17.70;99.90;;;;;;5098387;28;20483;-78
2022/08/18 07:37:43;;;;;;;4.43;2.28;;;17.70;99.90;;;;;;5116945;28;20043;-79
2022/08/18 07:40:45;;;;;;;1.40;1.27;;;17.70;99.90;;;;;;5105299;28;20047;-72
2022/08/18 07:43:34;;;;;;;0.77;0.77;;;17.70;99.90;;;;;;5116677;28;20431;-75
2022/08/18 07:46:17;;;;;;;1.30;1.13;;;17.70;99.90;;;;;;5116600;28;20055;-72
2022/08/18 07:48:43;;;;;;;1.70;1.23;;;17.80;99.90;;;;;;5116477;28;20016;-72
2022/08/18 07:51:08;;;;;;;3.10;1.35;;;17.90;99.90;;;;;;5116293;28;20068;-72
2022/08/18 07:53:37;;;;;;;1.70;1.55;;;18.10;99.90;;;;;;5116175;28;20075;-71
2022/08/18 07:56:21;;;;;;;1.65;0.88;;;18.50;99.90;;;;;;5116257;28;20039;-72
2022/08/18 07:58:59;;;;;;;1.42;1.15;;;18.80;99.90;;;;;;5114850;28;20044;-71
2022/08/18 08:01:33;;;;;;;3.65;0.80;;;19.20;99.90;;;;;;5116342;28;20115;-72
2022/08/18 08:04:25;;;;;;;0.80;0.80;;;19.50;99.90;;;;;;5116146;28;20169;-78
2022/08/18 08:07:09;;;;;;;1.50;1.00;;;19.90;99.90;;;;;;5115308;28;20092;-71
2022/08/18 08:09:53;;;;;;;1.73;0.77;;;20.20;99.90;;;;;;5116232;28;20023;-74
2022/08/18 08:12:40;;;;;;;1.25;1.15;;;20.30;99.90;;;;;;5116009;28;20077;-71
2022/08/18 08:15:27;;;;;;;0.95;0.95;;;20.20;99.90;;;;;;5115598;28;20019;-74
2022/08/18 08:18:23;;;;;;;0.52;0.52;;;20.10;99.90;;;;;;5097655;28;20491;-71
2022/08/18 08:20:54;;;;;;;1.35;1.33;;;19.90;99.90;;;;;;5115798;28;20023;-75
2022/08/18 08:23:26;;;;;;;1.90;0.95;;;19.90;99.90;;;;;;5115824;28;20113;-71
2022/08/18 08:26:17;;;;;;;7.03;1.65;;;19.80;99.90;;;;;;5115729;28;20099;-76
2022/08/18 08:29:02;;;;;;;0.80;0.80;;;19.80;99.90;;;;;;5115602;28;20016;-78
2022/08/18 08:31:50;;;;;;;2.50;1.52;;;19.70;99.90;;;;;;5115829;28;20028;-74
2022/08/18 08:34:38;;;;;;;1.98;1.48;;;19.40;99.90;;;;;;5115309;28;20102;-71
2022/08/18 08:37:08;;;;;;;1.23;0.80;;;19.50;99.90;;;;;;5115487;28;20106;-78
2022/08/18 08:39:40;;;;;;;1.88;1.25;;;19.40;99.90;;;;;;5115284;28;20105;-78
2022/08/18 08:42:24;;;;;;;1.38;1.30;;;19.30;99.90;;;;;;5115459;28;20024;-76
2022/08/18 08:45:00;;;;;;;0.77;0.77;;;19.50;99.90;;;;;;5115257;28;20055;-71
2022/08/18 08:47:33;;;;;;;1.30;1.00;;;19.70;99.90;;;;;;5115356;28;20537;-72
2022/08/18 08:50:12;;;;;;;0.40;0.40;;;19.70;99.90;;;;;;5115138;28;20020;-75
2022/08/18 08:53:08;;;;;;;0.57;0.57;;;19.80;99.90;;;;;;5115213;28;20034;-76
2022/08/18 08:55:40;;;;;;;1.23;1.13;;;19.70;99.90;;;;;;5096575;28;20039;-76
2022/08/18 08:58:19;;;;;;;1.17;0.95;;;19.80;99.90;;;;;;5115022;28;20495;-75
2022/08/18 09:00:46;;;;;;;;;;;19.80;99.90;;;;;;5115451;28;20090;-78
2022/08/18 09:03:37;;;;;;;1.05;0.90;;;19.90;99.90;;;;;;5115006;28;19904;-75
2022/08/18 09:06:21;;;;;;;1.13;1.02;;;20.10;99.90;;;;;;5114792;28;20161;-71
2022/08/18 09:08:47;;;;;;;0.98;0.95;;;20.20;99.90;;;;;;5114618;28;20019;-72
2022/08/18 09:11:17;;;;;;;0.82;0.82;;;20.20;99.90;;;;;;5114651;28;20020;-71
2022/08/18 09:13:43;;;;;;;0.35;0.35;;;20.00;99.90;;;;;;5114593;28;20460;-79
2022/08/18 09:16:32;;;;;;;1.83;1.52;;;19.90;99.90;;;;;;5096186;28;20038;-72
2022/08/18 09:19:19;;;;;;;1.25;0.93;;;19.90;99.90;;;;;;5114013;28;20086;-72
2022/08/18 09:22:13;;;;;;;0.60;0.60;;;20.00;99.90;;;;;;5114600;28;20023;-73
2022/08/18 09:24:45;;;;;;;1.52;1.05;;;20.20;99.90;;;;;;5114474;28;20015;-75
2022/08/18 09:27:12;;;;;;;0.17;0.17;;;20.30;99.90;;;;;;5114632;28;20030;-74
2022/08/18 09:29:38;;;;;;;2.13;0.65;;;20.70;99.90;;;;;;5114400;28;20011;-75
2022/08/18 09:32:19;;;;;;;1.35;1.15;;;21.10;99.90;;;;;;5114366;28;20113;-76
2022/08/18 09:35:11;;;;;;;0.35;0.32;;;21.50;99.90;;;;;;5114277;28;20036;-78
2022/08/18 09:41:30;;;;;;;0.88;0.50;;;21.50;99.90;;;;;;5114340;28;20043;-79
2022/08/18 09:43:51;;;;;;;1.30;1.20;;;21.60;99.90;;;;;;5114365;28;20545;-79
2022/08/18 09:46:40;;;;;;;1.25;0.52;;;21.80;99.90;;;;;;5096001;28;20149;-75
2022/08/18 09:49:24;;;;;;;0.50;0.50;;;22.30;99.90;;;;;;5113978;28;20483;-74
2022/08/18 09:52:00;;;;;;;0.43;0.43;;;22.60;99.90;;;;;;5113930;28;20277;-73
2022/08/18 09:54:31;;;;;;;0.60;0.55;;;22.60;99.90;;;;;;5113585;28;20044;-75
2022/08/18 09:57:03;;;;;;;2.25;1.52;;;22.80;99.90;;;;;;5114201;28;20365;-74
2022/08/18 09:59:31;;;;;;;2.20;0.50;;;23.00;99.90;;;;;;5114642;28;20023;-79
2022/08/18 10:02:02;;;;;;;2.15;0.45;;;22.50;99.90;;;;;;5114020;28;20103;-80
2022/08/18 10:05:12;;;;;;;1.10;0.95;;;22.40;99.90;;;;;;5115075;28;20020;-74
2022/08/18 10:07:43;;;;;;;0.50;0.50;;;22.50;99.90;;;;;;5092960;28;20035;-74
2022/08/18 10:10:48;;;;;;;1.30;0.68;;;23.00;99.90;;;;;;5113978;28;20460;-73
2022/08/18 10:13:33;;;;;;;1.17;0.55;;;23.70;99.90;;;;;;5113128;28;20504;-78
2022/08/18 10:16:11;;;;;;;0.80;0.57;;;23.80;99.90;;;;;;5112937;28;20027;-75
2022/08/18 10:18:49;;;;;;;0.30;0.30;;;23.10;99.90;;;;;;5112936;28;20047;-80
2022/08/18 10:21:27;;;;;;;0.60;0.38;;;24.30;99.90;;;;;;5112387;28;20027;-73
2022/08/18 10:24:04;;;;;;;0.22;0.22;;;22.80;99.90;;;;;;5113005;28;20121;-79
2022/08/18 10:26:29;;;;;;;1.40;0.30;;;22.90;99.90;;;;;;5112890;28;20020;-77
2022/08/18 10:29:56;;;;;;;0.20;0.20;;;23.00;99.90;;;;;;5113000;28;20535;-72
2022/08/18 10:32:34;;;;;;;1.98;0.52;;;22.90;99.90;;;;;;5109584;28;20038;-74
2022/08/18 10:35:00;;;;;;;1.40;0.47;;;22.70;99.90;;;;;;5113083;28;20039;-75
2022/08/18 10:37:42;;;;;;;0.40;0.40;;;22.70;99.90;;;;;;5113122;28;20384;-76
2022/08/18 10:40:13;;;;;;;0.40;0.40;;;22.60;99.90;;;;;;5112897;28;20098;-78
2022/08/18 10:43:09;;;;;;;0.88;0.50;;;22.50;99.90;;;;;;5112851;28;20491;-77
2022/08/18 10:45:44;;;;;;;1.85;0.45;;;22.40;99.90;;;;;;5112905;28;20153;-76
2022/08/18 10:48:15;;;;;;;0.13;0.13;;;22.40;99.90;;;;;;5112781;28;20044;-75
2022/08/18 10:50:57;;;;;;;0.40;0.40;;;22.50;99.90;;;;;;5112879;28;20031;-72
2022/08/18 10:53:26;;;;;;;4.70;0.65;;;22.50;99.90;;;;;;5112638;28;20126;-73
2022/08/18 10:56:04;;;;;;;0.38;0.38;;;22.50;99.90;;;;;;5112808;28;20027;-74
2022/08/18 10:58:46;;;;;;;0.13;0.13;;;22.30;99.90;;;;;;5112794;28;20436;-77
2022/08/18 11:01:41;;;;;;;1.02;0.63;;;22.00;99.90;;;;;;5113014;28;20028;-74
2022/08/18 11:04:27;;;;;;;0.65;0.65;;;21.70;99.90;;;;;;5082999;28;20420;-75
2022/08/18 11:07:07;;;;;;;0.45;0.45;;;21.60;99.90;;;;;;5111887;28;20035;-74
2022/08/18 11:09:33;;;;;;;0.93;0.40;;;21.70;99.90;;;;;;5112486;28;20028;-78
2022/08/18 11:12:01;;;;;;;0.40;0.40;;;21.80;99.90;;;;;;5112703;28;20062;-74
2022/08/18 11:14:37;;;;;;;0.45;0.45;;;22.10;99.90;;;;;;5113022;28;20072;-77
2022/08/18 11:17:27;;;;;;;0.50;0.47;;;22.30;99.90;;;;;;5112779;28;20027;-78
2022/08/18 11:19:54;;;;;;;0.40;0.25;;;22.40;99.90;;;;;;5094524;28;20111;-74
2022/08/18 11:22:25;;;;;;;0.40;0.40;;;22.40;99.90;;;;;;5112561;28;20073;-75
2022/08/18 11:24:51;;;;;;;4.47;1.48;;;22.50;99.90;;;;;;5112520;28;20380;-74
2022/08/18 11:27:26;;;;;;;0.47;0.47;;;22.70;99.90;;;;;;5112815;28;20020;-74
2022/08/18 11:29:53;;;;;;;0.85;0.70;;;22.70;99.90;;;;;;5112541;28;20031;-74
2022/08/18 11:32:31;;;;;;;1.10;0.70;;;22.80;99.90;;;;;;5113226;28;20016;-80
2022/08/18 11:35:15;;;;;;;2.47;0.85;;;23.30;99.90;;;;;;5116977;28;20053;-85
2022/08/18 11:37:40;;;;;;;0.30;0.30;;;23.80;99.90;;;;;;5117072;28;20034;-82
2022/08/18 11:40:35;;;;;;;0.52;0.52;;;23.60;99.90;;;;;;5117045;28;20020;-83
2022/08/18 11:43:02;;;;;;;0.50;0.50;;;23.00;99.90;;;;;;5116047;28;20570;-77
2022/08/18 11:45:34;;;;;;;0.93;0.90;;;23.00;99.90;;;;;;5116027;28;20105;-77
2022/08/18 11:48:13;;;;;;;0.40;0.40;;;23.00;99.90;;;;;;5115959;28;20030;-72
2022/08/18 11:51:16;;;;;;;0.43;0.32;;;23.20;99.90;;;;;;5115729;28;20024;-70
2022/08/18 11:53:47;;;;;;;0.40;0.40;;;23.70;99.90;;;;;;5090499;28;20047;-78
2022/08/18 11:56:18;;;;;;;0.57;0.55;;;23.80;99.90;;;;;;5115436;28;20032;-76
2022/08/18 11:59:04;;;;;;;0.50;0.50;;;23.10;99.90;;;;;;5116025;28;20024;-76
2022/08/18 12:01:42;;;;;;;0.43;0.43;;;23.00;99.90;;;;;;5116213;28;20026;-80
2022/08/18 12:04:16;;;;;;;0.32;0.32;;;23.00;99.90;;;;;;5116185;28;20076;-73
2022/08/18 12:07:03;;;;;;;0.85;0.30;;;22.90;99.90;;;;;;5115451;28;20031;-76
2022/08/18 12:09:45;;;;;;;0.50;0.50;;;22.70;99.90;;;;;;5115455;28;20026;-74
2022/08/18 12:12:26;;;;;;;3.60;0.98;;;22.70;99.90;;;;;;5115316;28;20384;-76
2022/08/18 12:14:57;;;;;;;1.08;0.98;;;22.80;99.90;;;;;;5096941;28;20030;-69
2022/08/18 12:17:23;;;;;;;0.25;0.25;;;22.80;99.90;;;;;;5115187;28;20375;-70
2022/08/18 12:19:49;;;;;;;0.60;0.60;;;23.10;99.90;;;;;;5115009;28;20432;-70
2022/08/18 12:22:21;;;;;;;1.25;1.15;;;23.20;99.90;;;;;;5115100;28;20027;-70
2022/08/18 12:24:46;;;;;;;1.67;1.52;;;23.10;99.90;;;;;;5115517;28;20020;-69
2022/08/18 12:27:14;;;;;;;0.55;0.52;;;23.50;99.90;;;;;;5116051;28;20387;-70
2022/08/18 12:29:41;;;;;;;0.95;0.80;;;23.60;99.90;;;;;;5115620;28;20028;-73
2022/08/18 12:32:06;;;;;;;1.73;0.77;;;23.90;99.90;;;;;;5115438;28;20368;-69
2022/08/18 12:34:32;;;;;;;1.52;0.95;;;24.00;99.90;;;;;;5115620;28;20027;-70
2022/08/18 12:37:00;;;;;;;0.73;0.65;;;24.20;99.90;;;;;;5115653;28;20043;-70
2022/08/18 12:39:27;;;;;;;0.85;0.60;;;24.10;99.90;;;;;;5115485;28;20016;-69
2022/08/18 12:41:53;;;;;;;1.05;0.70;;;23.50;99.90;;;;;;5115368;28;20080;-70
2022/08/18 12:44:19;;;;;;;0.32;0.32;;;23.30;99.90;;;;;;5114887;28;20023;-69
2022/08/18 12:46:45;;;;;;;0.98;0.57;;;23.30;99.90;;;;;;5096906;28;20041;-70
2022/08/18 12:49:22;;;;;;;1.98;1.23;;;23.30;99.90;;;;;;5115048;28;20024;-69
2022/08/18 12:51:49;;;;;;;6.97;1.77;;;23.40;99.90;;;;;;5115021;28;20024;-70
2022/08/18 12:54:15;;;;;;;0.65;0.47;;;23.20;99.90;;;;;;5114928;28;20526;-70
2022/08/18 12:56:41;;;;;;;0.68;0.68;;;23.40;99.90;;;;;;5114907;28;20031;-70
2022/08/18 12:59:08;;;;;;;2.03;0.98;;;23.10;99.90;;;;;;5115218;28;20290;-70
2022/08/18 13:01:36;;;;;;;0.60;0.60;;;23.20;99.90;;;;;;5115058;28;20028;-70
2022/08/18 13:04:03;;;;;;;1.58;1.38;;;23.40;99.90;;;;;;5096609;28;20020;-69
2022/08/18 13:06:30;;;;;;;1.65;1.55;;;23.20;99.90;;;;;;5114937;28;20048;-69
2022/08/18 13:08:56;;;;;;;0.40;0.40;;;23.10;99.90;;;;;;5114862;28;20395;-72
2022/08/18 13:11:22;;;;;;;1.00;0.90;;;23.10;99.90;;;;;;5114636;28;20015;-69
2022/08/18 13:13:49;;;;;;;0.60;0.32;;;22.90;99.90;;;;;;5114575;28;20047;-70
2022/08/18 13:16:17;;;;;;;0.40;0.40;;;22.80;99.90;;;;;;5114643;28;20043;-69
2022/08/18 13:18:43;;;;;;;0.77;0.77;;;23.00;99.90;;;;;;5114896;28;20110;-70
2022/08/18 13:21:11;;;;;;;1.00;0.80;;;23.20;99.90;;;;;;5114702;28;20361;-70
2022/08/18 13:23:38;;;;;;;1.20;0.60;;;23.00;99.90;;;;;;5114579;28;20011;-71
2022/08/18 13:26:08;;;;;;;0.50;0.50;;;23.00;99.90;;;;;;5114708;28;20023;-71
2022/08/18 13:28:35;;;;;;;3.13;0.82;;;23.50;99.90;;;;;;5114397;28;20020;-70
2022/08/18 13:31:01;;;;;;;1.08;0.55;;;23.50;99.90;;;;;;5114414;28;20028;-73
2022/08/18 13:33:27;;;;;;;0.20;0.20;;;23.40;99.90;;;;;;5114334;28;20020;-71